METAR AND TAF INFORMATION
METAR FOR EKVG
ADDS - METARS form results

(0151 UTC 23 July 2018)
Data provider http://aviationweather.gov/adds/metars/
 
METAR text: EKVG 230150Z AUTO 22004KT 170V260 9999NDV OVC005/// 10/10 Q1007
Conditions at: EKVG (SORVAAG/VAGAR , DK) observed 0150 UTC 23 July 2018
Temperature: 10.0°C (50°F)
Dewpoint: 10.0°C (50°F) [RH = 100%]
Pressure (altimeter): 29.73 inches Hg (1007.0 mb)
Winds: from the SW (220 degrees) at 5 MPH (4 knots; 2.1 m/s)
Visibility: missing
Ceiling: 500 feet AGL
Clouds: overcast cloud deck at 500 feet AGL
Weather: no significant weather observed at this time

METAR text: EKVG 230120Z AUTO 23005KT 190V270 9999NDV OVC008/// 10/09 Q1007 RMK BKN008/// WIND 850FT 24011KT
Conditions at: EKVG (SORVAAG/VAGAR , DK) observed 0120 UTC 23 July 2018
Temperature: 10.0°C (50°F)
Dewpoint: 9.0°C (48°F) [RH = 93%]
Pressure (altimeter): 29.73 inches Hg (1007.0 mb)
Winds: from the SW (230 degrees) at 6 MPH (5 knots; 2.6 m/s)
Visibility: missing
Ceiling: 800 feet AGL
Clouds: overcast cloud deck at 800 feet AGL
Weather: no significant weather observed at this time

 AIRPORT MAP

 RUNWAY INFORMATION
Runway 13 Runway length 5902 ft Runway width 98 ft
Runway elevation 268 ft Runway displaced threshold 0 ft Runway heading 118
Runway 31 Runway length 5902 ft Runway width 98 ft
Runway elevation 252 ft Runway displaced threshold 0 ft Runway heading 298

 AIRPORT FREQUENCIES
Type AFIS Name AFIS Frequency 124.85 MHZ

 AIRPORT NEAR NAVIGATION AIDS
Type NDB Name Myggenes Frequency 337 KHZ
Type NDB Name Nolso Frequency 404 KHZ
Type NDB Name Vagar Frequency 348 KHZ



Powered by Virtual Airlines Manager [v2.6.2]